Главная страница
METAR-TAF:

METAR-TAF

Аэропорты :

Olean, Нью-Йорк, США

широта: 42-14-28N, долгота: 078-22-17W, высота над уровнем моря: 651 м

Текущие метеонаблюдения

Эта сводка был подготовлена 23 минут назад, в 21:55 UTC
Ветер 6 Узел от северный
Температура 11°C
Влажность 47%
Давление 1028 hPa
Видимость: 16.1 км
ясное небо

METAR: KOLE 192155Z AUTO 01006KT 10SM CLR 11/00 A3036 RMK AO2

Время: 18:18 (22:18 UTC)


TAF: отсутствует

Метеонаблюдения и прогнозы для более 4000 аэропортов (сводки METAR и TAF).

Имеющиеся станции представлены на карте желтыми и красными точками.

Чтобы увидеть название станции, наведите на нее мышь.

Затем щелкните, чтобы увидеть метеонаблюдения и метеопрогнозы.

Управление картой: чтобы увеличить масштаб, щелкните зеленые кнопки с черным крестиком; чтобы уменьшить масштаб, щелкните зеленую кнопку с тире; для просмотра соседних карт щелкайте зеленые стрелки.


METAR-TAF: